Latest Weather Observations for McCluer Island

IDD60801

Issued at 11:35 am CST Monday 22 September 2014 (issued every 30 minutes, with the page automatically refreshed every 10 minutes)

About weather observations | Map of weather stations | Latest weather observations for NT | Other Formats
Station Details ID: 014274 Name: MCCLUER ISLAND Lat: -11.05 Lon: 132.98 Height: 1.4 m
Data from the previous 72 hours. | See also: Recent months at McCluer Island
Date/Time
CST
Temp
°C
App
Temp
°C
Dew
Point
Rel
Hum
%
Delta-T
°C
Wind Press
QNH
hPa
Press
MSL
hPa
Rain
since 9 am
mm
Dir
 
Spd
km/h
Gust
km/h
Spd
kts
Gust
kts
22/11:30am 28.2 29.3 23.1 74 3.5 ESE 22 28 12 15 1014.5 - 0.0
22/11:00am 28.1 29.5 22.8 73 3.6 E 20 26 11 14 1015.0 - 0.0
22/10:30am 28.6 30.4 23.5 74 3.5 ESE 20 24 11 13 1015.3 - 0.0
22/10:00am 27.6 28.7 22.3 73 3.6 E 20 24 11 13 1015.6 - 0.0
22/09:30am 27.5 29.1 22.9 76 3.1 ESE 19 24 10 13 1015.7 - 0.0
22/09:00am 27.1 28.4 22.7 77 3.0 ESE 20 24 11 13 1015.8 1015.8 0.0
22/08:30am 26.9 28.5 22.9 79 2.7 ESE 19 22 10 12 1015.6 - 0.0
22/08:00am 26.6 28.9 23.5 83 2.1 E 17 20 9 11 1015.2 - 0.0
22/07:30am 25.0 27.4 22.9 88 1.4 E 15 19 8 10 1014.7 - 0.0
22/07:00am 23.9 27.1 23.0 95 0.6 ESE 11 15 6 8 1014.4 - 0.0
22/06:30am 23.3 26.2 22.5 95 0.5 ESE 11 15 6 8 1013.8 - 0.0
22/06:00am 23.5 26.5 22.7 95 0.5 ESE 11 13 6 7 1013.4 1013.4 0.0
22/05:30am 24.0 26.9 22.4 91 1.1 ESE 11 13 6 7 1013.0 - 0.0
22/05:00am 25.2 28.6 23.3 89 1.3 E 11 17 6 9 1012.7 - 0.0
22/04:30am 25.3 28.9 23.7 91 1.1 E 11 13 6 7 1012.5 - 0.0
22/04:00am 25.4 28.7 23.8 91 1.1 E 13 19 7 10 1012.4 - 0.0
22/03:30am 25.5 28.2 24.1 92 1.0 E 17 20 9 11 1012.5 - 0.0
22/03:00am 25.6 28.0 24.2 92 1.0 E 19 20 10 11 1012.5 1012.5 0.0
22/02:30am 25.6 27.5 24.4 93 0.8 ENE 22 24 12 13 1012.3 - 0.0
22/02:00am 25.8 27.8 24.6 93 0.8 ENE 22 24 12 13 1012.4 - 0.0
22/01:30am 26.0 28.2 24.8 93 0.8 ENE 22 24 12 13 1012.6 - 0.0
22/01:00am 26.0 28.3 24.4 91 1.1 E 20 24 11 13 1012.9 - 0.0
22/12:30am 26.0 28.0 24.0 89 1.4 ENE 20 22 11 12 1013.3 - 0.0
22/12:00am 26.2 29.2 24.6 91 1.1 ENE 17 20 9 11 1013.8 1013.8 0.0
 
Date/Time
CST
Temp
°C
App
Temp
°C
Dew
Point
Rel
Hum
%
Delta-T
°C
Wind Press
QNH
hPa
Press
MSL
hPa
Rain
since 9 am
mm
Dir
 
Spd
km/h
Gust
km/h
Spd
kts
Gust
kts
21/11:30pm 26.1 28.4 24.1 89 1.4 NE 19 20 10 11 1013.9 - 0.0
21/11:00pm 26.1 28.4 24.1 89 1.4 NE 19 20 10 11 1013.9 - 0.0
21/10:30pm 26.3 28.6 24.5 90 1.2 NE 20 24 11 13 1013.8 - 0.0
21/10:00pm 26.3 27.7 24.2 88 1.4 NNE 24 28 13 15 1013.8 - 0.0
21/09:30pm 26.4 28.2 24.2 88 1.5 NNE 22 30 12 16 1014.0 - 0.0
21/09:00pm 26.5 26.6 24.5 89 1.4 NNE 32 35 17 19 1013.2 1013.2 0.0
21/08:30pm 26.6 27.1 24.6 89 1.4 NNE 30 32 16 17 1013.1 - 0.0
21/08:00pm 26.6 27.2 24.1 86 1.7 NE 28 32 15 17 1013.1 - 0.0
21/07:30pm 26.6 27.9 24.1 86 1.7 NE 24 28 13 15 1013.2 - 0.0
21/07:00pm 26.5 28.5 24.0 86 1.7 NE 20 24 11 13 1012.8 - 0.0
21/06:30pm 26.5 29.3 23.6 84 2.0 ENE 15 19 8 10 1012.6 - 0.0
21/06:00pm 26.8 29.5 23.5 82 2.3 ENE 15 17 8 9 1012.3 1012.3 0.0
21/05:30pm 26.9 29.8 23.2 80 2.5 ENE 13 17 7 9 1011.9 - 0.0
21/05:00pm 26.9 30.0 23.6 82 2.3 ENE 13 17 7 9 1011.8 - 0.0
21/04:30pm 27.3 30.9 24.4 84 2.0 ENE 13 15 7 8 1011.6 - 0.0
21/04:00pm 27.3 30.3 24.0 82 2.3 ENE 15 17 8 9 1011.4 - 0.0
21/03:30pm 28.0 32.0 24.4 81 2.5 E 11 15 6 8 1011.5 - 0.0
21/03:00pm 27.7 31.4 23.3 77 3.0 E 9 13 5 7 1011.7 1011.7 0.0
21/02:30pm 28.4 32.5 24.0 77 3.0 E 9 13 5 7 1012.1 - 0.0
21/02:00pm 28.0 31.9 23.6 77 3.0 E 9 13 5 7 1012.4 - 0.0
21/01:30pm 28.1 31.3 23.0 74 3.5 E 11 13 6 7 1012.9 - 0.0
21/01:00pm 28.7 32.5 23.4 73 3.6 E 9 13 5 7 1013.5 - 0.0
21/12:30pm 28.7 32.2 22.9 71 4.0 E 9 13 5 7 1013.7 - 0.0
21/12:00pm 28.1 30.8 21.4 67 4.5 ENE 9 15 5 8 1014.1 1014.1 0.0
21/11:30am 28.7 33.0 23.6 74 3.5 E 7 11 4 6 1014.4 - 0.0
21/11:00am 28.2 30.6 23.6 76 3.2 S 17 20 9 11 1014.8 - 0.0
21/10:30am 28.4 32.8 23.8 76 3.2 E 7 13 4 7 1015.3 - 0.0
21/10:00am 28.2 31.4 23.1 74 3.5 E 11 13 6 7 1015.6 - 0.0
21/09:30am 27.4 30.7 23.2 78 2.9 E 11 13 6 7 1015.5 - 0.0
21/09:00am 27.4 31.1 23.2 78 2.9 E 9 13 5 7 1015.2 1015.2 0.0
21/08:30am 27.3 31.5 23.5 80 2.6 E 7 9 4 5 1014.7 - 0.0
21/08:00am 26.6 30.1 22.9 80 2.5 E 9 13 5 7 1014.3 - 0.0
21/07:30am 26.1 28.5 23.6 86 1.7 ENE 17 19 9 10 1013.5 - 0.0
21/07:00am 25.6 27.5 23.5 88 1.4 ENE 19 22 10 12 1013.2 - 0.0
21/06:30am 25.5 26.9 22.8 85 1.8 ENE 20 22 11 12 1012.7 - 0.0
21/06:00am 25.8 27.6 23.5 87 1.6 ENE 20 22 11 12 1012.4 1012.4 0.0
21/05:30am 25.6 27.2 23.3 87 1.6 ENE 20 24 11 13 1012.1 - 0.0
21/05:00am 25.8 27.6 23.5 87 1.6 ENE 20 22 11 12 1012.1 - 0.0
21/04:30am 26.1 27.9 23.6 86 1.7 ENE 20 24 11 13 1011.9 - 0.0
21/04:00am 26.0 27.3 23.3 85 1.8 ENE 22 24 12 13 1011.9 - 0.0
21/03:30am 25.7 26.7 22.8 84 2.0 ENE 22 24 12 13 1011.9 - 0.0
21/03:00am 25.8 26.8 22.9 84 2.0 E 22 24 12 13 1012.0 1012.0 0.0
21/02:30am 25.9 27.5 23.2 85 1.8 E 20 24 11 13 1012.1 - 0.0
21/02:00am 25.8 27.3 23.1 85 1.8 E 20 24 11 13 1012.3 - 0.0
21/01:30am 26.1 27.8 23.4 85 1.8 E 20 24 11 13 1012.6 - 0.0
21/01:00am 26.3 27.9 23.8 86 1.7 E 22 24 12 13 1012.8 - 0.0
21/12:30am 26.0 27.1 23.1 84 2.0 E 22 24 12 13 1013.0 - 0.0
21/12:00am 26.3 28.2 23.8 86 1.7 ENE 20 22 11 12 1013.4 1013.4 0.0
 
Date/Time
CST
Temp
°C
App
Temp
°C
Dew
Point
Rel
Hum
%
Delta-T
°C
Wind Press
QNH
hPa
Press
MSL
hPa
Rain
since 9 am
mm
Dir
 
Spd
km/h
Gust
km/h
Spd
kts
Gust
kts
20/11:30pm 26.0 27.3 23.3 85 1.8 ENE 22 24 12 13 1013.5 - 0.0
20/11:00pm 26.3 28.3 24.5 90 1.2 ENE 22 28 12 15 1013.5 - 0.0
20/10:30pm 26.1 28.1 24.5 91 1.1 ENE 22 26 12 14 1013.5 - 0.0
20/10:00pm 26.0 27.5 24.4 91 1.1 NE 24 28 13 15 1013.3 - 0.0
20/09:30pm 26.4 27.9 25.0 92 1.0 NE 26 30 14 16 1012.9 - 0.0
20/09:00pm 26.3 27.4 24.9 92 1.0 NE 28 32 15 17 1012.6 1012.6 0.0
20/08:30pm 26.1 27.6 24.9 93 0.8 NE 26 30 14 16 1012.5 - 0.0
20/08:00pm 26.0 27.3 24.6 92 1.0 NE 26 30 14 16 1012.4 - 0.0
20/07:30pm 26.1 27.7 25.1 94 0.7 NE 26 32 14 17 1011.9 - 0.0
20/07:00pm 26.0 27.1 25.0 94 0.7 NE 28 32 15 17 1011.6 - 0.0
20/06:30pm 26.0 26.9 24.6 92 1.0 NE 28 32 15 17 1011.4 - 0.0
20/06:00pm 26.3 27.6 24.7 91 1.1 ENE 26 30 14 16 1011.4 1011.4 0.0
20/05:30pm 26.7 28.0 24.7 89 1.4 ENE 26 30 14 16 1011.4 - 0.0
20/05:00pm 27.0 28.3 24.6 87 1.7 E 26 30 14 16 1011.3 - 0.0
20/04:30pm 27.1 28.0 24.0 83 2.1 ENE 26 30 14 16 1011.3 - 0.0
20/04:00pm 27.5 29.2 24.1 82 2.3 E 22 26 12 14 1011.3 - 0.0
20/03:30pm 27.6 28.9 23.4 78 2.9 E 22 24 12 13 1011.3 - 0.0
20/03:00pm 27.9 29.7 23.5 77 3.0 E 20 24 11 13 1011.5 1011.5 0.0
20/02:30pm 28.4 30.3 23.8 76 3.2 E 20 22 11 12 1011.9 - 0.0
20/02:00pm 28.1 29.5 22.8 73 3.6 E 20 24 11 13 1012.3 - 0.0
20/01:30pm 28.3 29.0 23.0 73 3.6 E 24 28 13 15 1012.9 - 0.0
20/01:00pm 28.4 29.5 23.1 73 3.6 E 22 26 12 14 1013.5 - 0.0
20/12:30pm 28.1 29.7 23.2 74 3.3 E 20 24 11 13 1013.9 - 0.0
20/12:00pm 27.8 29.1 22.7 74 3.5 E 20 24 11 13 1014.6 1014.6 0.0
20/11:30am 27.9 29.0 23.1 75 3.3 E 22 24 12 13 1014.9 - 0.0
20/11:00am 27.5 28.2 22.9 76 3.1 E 24 28 13 15 1015.4 - 0.0
20/10:30am 27.1 26.9 22.7 77 3.0 E 28 32 15 17 1015.7 - 0.0
20/10:00am 27.1 27.9 23.1 79 2.7 E 24 28 13 15 1015.7 - 0.0
20/09:30am 27.1 28.0 23.3 80 2.6 E 24 26 13 14 1015.3 - 0.0
20/09:00am 26.9 28.1 23.2 80 2.5 E 22 24 12 13 1015.1 1015.1 0.0
20/08:30am 26.8 27.9 23.1 80 2.5 E 22 26 12 14 1014.9 - 0.0
20/08:00am 26.2 27.1 22.7 81 2.4 E 22 26 12 14 1014.6 - 0.0
20/07:30am 25.7 26.7 22.2 81 2.3 E 20 24 11 13 1014.4 - 0.0
20/07:00am 25.5 26.4 22.6 84 2.0 E 22 24 12 13 1013.8 - 0.0
20/06:30am 25.3 25.1 22.0 82 2.2 E 26 30 14 16 1013.2 - 0.0
20/06:00am 25.3 26.0 22.2 83 2.1 E 22 26 12 14 1013.1 1013.1 0.0
20/05:30am 25.6 26.0 22.5 83 2.1 E 24 28 13 15 1012.7 - 0.0
20/05:00am 25.6 26.5 22.7 84 2.0 E 22 24 12 13 1012.6 - 0.0
20/04:30am 25.6 26.9 22.7 84 2.0 E 20 22 11 12 1012.5 - 0.0
20/04:00am 26.1 27.7 23.2 84 2.0 E 20 24 11 13 1012.6 - 0.0
20/03:30am 25.6 26.7 22.3 82 2.2 E 20 24 11 13 1012.6 - 0.0
20/03:00am 25.8 27.2 22.9 84 2.0 E 20 22 11 12 1012.4 1012.4 0.0
20/02:30am 26.0 27.5 23.1 84 2.0 E 20 24 11 13 1012.4 - 0.0
20/02:00am 26.0 27.0 22.9 83 2.1 E 22 26 12 14 1012.8 - 0.0
20/01:30am 26.0 26.4 22.5 81 2.4 E 24 28 13 15 1013.1 - 0.0
20/01:00am 26.0 26.5 22.7 82 2.2 E 24 26 13 14 1013.5 - 0.0
20/12:30am 26.1 27.3 23.2 84 2.0 E 22 28 12 15 1013.7 - 0.0
20/12:00am 26.3 26.6 23.0 82 2.2 ENE 26 30 14 16 1014.1 1014.1 0.0
 
Date/Time
CST
Temp
°C
App
Temp
°C
Dew
Point
Rel
Hum
%
Delta-T
°C
Wind Press
QNH
hPa
Press
MSL
hPa
Rain
since 9 am
mm
Dir
 
Spd
km/h
Gust
km/h
Spd
kts
Gust
kts
19/11:30pm 26.7 27.4 23.6 83 2.1 ENE 26 30 14 16 1014.4 - 0.0
19/11:00pm 26.7 26.4 23.2 81 2.4 E 30 33 16 18 1014.5 - 0.0
19/10:30pm 26.6 26.4 22.7 79 2.6 E 28 33 15 18 1014.5 - 0.0
19/10:00pm 26.8 26.0 22.4 77 3.0 ENE 30 35 16 19 1014.5 - 0.0
19/09:30pm 27.0 26.0 22.6 77 3.0 ENE 32 35 17 19 1014.2 - 0.0
19/09:00pm 26.9 25.7 22.3 76 3.1 ENE 32 37 17 20 1013.8 1013.8 0.0
19/08:30pm 27.1 25.1 21.2 70 3.9 ENE 33 39 18 21 1013.3 - 0.0
19/08:00pm 26.9 25.3 21.9 74 3.3 ENE 33 41 18 22 1012.9 - 0.0
19/07:30pm 27.0 25.2 21.5 72 3.7 ENE 33 39 18 21 1012.5 - 0.0
19/07:00pm 27.0 25.2 21.5 72 3.7 ENE 33 39 18 21 1012.0 - 0.0
19/06:30pm 27.0 25.8 22.2 75 3.2 NE 32 35 17 19 1011.6 - 0.0
19/06:00pm 26.8 26.8 23.1 80 2.5 NE 28 33 15 18 1011.3 1011.3 0.0
19/05:30pm 26.8 26.8 23.1 80 2.5 NE 28 32 15 17 1011.3 - 0.0
19/05:00pm 26.8 27.4 22.8 79 2.7 ENE 24 28 13 15 1011.4 - 0.0
19/04:30pm 27.3 28.8 23.7 81 2.5 E 22 26 12 14 1011.5 - 0.0
19/04:00pm 27.6 28.9 23.4 78 2.9 E 22 24 12 13 1011.7 - 0.0
19/03:30pm 27.7 29.6 23.7 79 2.7 E 20 24 11 13 1011.8 - 0.0
19/03:00pm 27.7 29.5 23.5 78 2.9 E 20 24 11 13 1012.0 1012.0 0.0
19/02:30pm 27.9 29.4 23.7 78 2.9 ESE 22 28 12 15 1012.3 - 0.0
19/02:00pm 27.8 29.4 23.8 79 2.8 ESE 22 28 12 15 1012.5 - 0.0
19/01:30pm 27.6 28.8 23.8 80 2.6 E 24 26 13 14 1012.9 - 0.0
19/01:00pm 27.5 28.9 22.9 76 3.1 E 20 24 11 13 1013.2 - 0.0
19/12:30pm 27.5 29.3 24.3 83 2.2 E 22 26 12 14 1013.7 - 0.0
19/12:00pm 28.0 29.9 24.4 81 2.5 ESE 22 26 12 14 1014.1 1014.1 0.0

Other Formats:

Comma delimited format used in spreadsheet applications
http://www.bom.gov.au/fwo/IDD60801/IDD60801.94135.axf

JavaScript Object Notation format (JSON) in row-major order
http://www.bom.gov.au/fwo/IDD60801/IDD60801.94135.json